Terminal Aerodrome Forecast
Issued by NWS Tulsa, OK

Home | Current Version | Previous Version | Text Only | Print | Product List | Glossary On
Versions: 1 2 3 4 5 6 7 8 9 10 11 12
482
FTUS44 KTSA 221136
TAFTUL
TAF
KTUL 221136Z 2212/2312 21008KT P6SM BKN120
      TEMPO 2212/2216 3SM TSRA SCT012 BKN040CB
     FM221600 24009KT P6SM VCSH SCT050 BKN150
     FM221900 02008KT P6SM VCTS BKN050CB
     FM222300 03005KT P6SM BKN250
     FM230600 04007KT P6SM SCT250=

USA.gov is the U.S. government's official web portal to all federal, state and local government web resources and services.